Fu Ning Wan — VRDN9 — position and weather

sailwx.info

Track history (hours):
 
Tides and Currents Weather Stations Pressure Air Temp Water Temp Dewpoint Dewpoint Depression Visibility Wind Speed Wind Dir Waves Ship Positions

Fu Ning Wan

Last reported at 2016-Jul-24 19:32 UTC. Time now 2016-Jul-25 02:27 UTC.
Position S 26°54' E 153°46'.

Length 102 m; draft 5.6 m.

Type: Tanker. MMSI: 477003600.

Date/timePositionNaut miles runAvg speedWind from/ knotsBaromVisibWave heightAir tempDewpointWater temp
2016-Jul-24 19:32S 26°54' E 153°46'1311.8
2016-Jul-24 18:28S 27°06' E 153°47'1211.6
2016-Jul-24 17:27S 27°18' E 153°49'1211.6
2016-Jul-24 16:27S 27°30' E 153°50'1011.4
2016-Jul-24 15:33S 27°40' E 153°51'30111.4
2016-Jul-23 13:04S 32°34' E 152°37'612.5
2016-Jul-23 12:33S 32°40' E 152°35'1312.6
2016-Jul-23 11:33S 32°52' E 152°30'1312.5
2016-Jul-23 10:33S 33°04' E 152°25'21910.9
2016-Jul-22 14:33S 36°25' E 150°41'1312.7
2016-Jul-22 13:33S 36°37' E 150°35'1313.1
2016-Jul-22 12:32S 36°49' E 150°29'1312.9
2016-Jul-22 11:33S 37°01' E 150°23'1312.7
2016-Jul-22 10:33S 37°13' E 150°17'1313.4
2016-Jul-22 09:33S 37°25' E 150°10'1212.2
2016-Jul-22 08:33S 37°36' E 150°04'1211.9
2016-Jul-22 07:33S 37°44' E 149°53'2613.1
2016-Jul-22 05:33S 38°00' E 149°27'1313.0
2016-Jul-22 04:33S 38°09' E 149°14'1212.2
2016-Jul-22 03:32S 38°17' E 149°02'9912.4
2016-Jul-21 19:33S 39°05' E 147°12'1413.5
2016-Jul-21 18:33S 39°10' E 146°55'1313.2
2016-Jul-21 17:32S 39°15' E 146°39'1212.5
2016-Jul-21 16:33S 39°17' E 146°24'1211.8
2016-Jul-21 15:33S 39°14' E 146°09'1312.7
2016-Jul-21 14:33S 39°08' E 145°54'1312.7
2016-Jul-21 13:33S 39°02' E 145°40'  
2016-Jul-15 19:33S 38°45' E 142°18'1312.4
2016-Jul-15 18:32S 38°41' E 142°02'5312.3
2016-Jul-15 14:11S 38°22' E 140°59'  
Track history (hours):
 
Tides and Currents Weather Stations Pressure Air Temp Water Temp Dewpoint Dewpoint Depression Visibility Wind Speed Wind Dir Waves Ship Positions

Fu Ning Wan

Last reported at 2016-Jul-24 19:32 UTC. Time now 2016-Jul-25 02:27 UTC.
Position S 26°54' E 153°46'.

Length 102 m; draft 5.6 m.

Type: Tanker. MMSI: 477003600.

Date/timePositionNaut miles runAvg speedWind from/ knotsBaromVisibWave heightAir tempDewpointWater temp
2016-Jul-24 19:32S 26°54' E 153°46'1311.8
2016-Jul-24 18:28S 27°06' E 153°47'1211.6
2016-Jul-24 17:27S 27°18' E 153°49'1211.6
2016-Jul-24 16:27S 27°30' E 153°50'1011.4
2016-Jul-24 15:33S 27°40' E 153°51'30111.4
2016-Jul-23 13:04S 32°34' E 152°37'612.5
2016-Jul-23 12:33S 32°40' E 152°35'1312.6
2016-Jul-23 11:33S 32°52' E 152°30'1312.5
2016-Jul-23 10:33S 33°04' E 152°25'21910.9
2016-Jul-22 14:33S 36°25' E 150°41'1312.7
2016-Jul-22 13:33S 36°37' E 150°35'1313.1
2016-Jul-22 12:32S 36°49' E 150°29'1312.9
2016-Jul-22 11:33S 37°01' E 150°23'1312.7
2016-Jul-22 10:33S 37°13' E 150°17'1313.4
2016-Jul-22 09:33S 37°25' E 150°10'1212.2
2016-Jul-22 08:33S 37°36' E 150°04'1211.9
2016-Jul-22 07:33S 37°44' E 149°53'2613.1
2016-Jul-22 05:33S 38°00' E 149°27'1313.0
2016-Jul-22 04:33S 38°09' E 149°14'1212.2
2016-Jul-22 03:32S 38°17' E 149°02'9912.4
2016-Jul-21 19:33S 39°05' E 147°12'1413.5
2016-Jul-21 18:33S 39°10' E 146°55'1313.2
2016-Jul-21 17:32S 39°15' E 146°39'1212.5
2016-Jul-21 16:33S 39°17' E 146°24'1211.8
2016-Jul-21 15:33S 39°14' E 146°09'1312.7
2016-Jul-21 14:33S 39°08' E 145°54'1312.7
2016-Jul-21 13:33S 39°02' E 145°40'  
2016-Jul-15 19:33S 38°45' E 142°18'1312.4
2016-Jul-15 18:32S 38°41' E 142°02'5312.3
2016-Jul-15 14:11S 38°22' E 140°59'  

Dump ship's entire track history